Los Angeles, California
Traffic Map
Current Weather Conditions
Los Angeles, California
Overcast
Overcast
63°
Feels Like: 63°
Wind Chill: 63° Ceiling: 1800
Heat Index: 63° Visibility: 10mi
Dew Point: 55° Wind: 0mph
Humidity: 75% Direction: ° ()
Pressure: 29.94in Gusts: 0mph
Raw Report DataKCQT 201547Z AUTO 00000KT 10SM OVC018 17/13 A2994 RMK AO2 SLP137 T01720128 $
Traffic Incident Summary
Active as of:
Severity:
Category:
InformationThere was an issue retrieving the traffic information for this location. Please try a different location or try again shortly.
Advertisements